createdAt,value
2018-05-07T00:01:41.605Z,3.93
2018-05-07T00:04:09.214Z,4.17
2018-05-07T00:06:36.820Z,4.17
2018-05-07T00:09:04.498Z,3.80
2018-05-07T00:11:32.143Z,4.07
2018-05-07T00:13:59.689Z,3.90
2018-05-07T00:16:28.181Z,4.10
2018-05-07T00:18:55.752Z,3.83
2018-05-07T00:21:23.373Z,4.00
2018-05-07T00:23:50.968Z,4.30
2018-05-07T00:26:18.586Z,4.00
2018-05-07T00:28:46.186Z,4.47
2018-05-07T00:31:13.796Z,3.90
2018-05-07T00:33:41.390Z,3.77
2018-05-07T00:36:09.795Z,4.07
2018-05-07T00:38:37.391Z,4.27
2018-05-07T00:41:04.997Z,4.30
2018-05-07T00:43:33.353Z,3.77
2018-05-07T00:46:00.971Z,3.87
2018-05-07T00:48:28.569Z,3.30
2018-05-07T00:50:56.185Z,4.20
2018-05-07T00:53:23.781Z,3.90
2018-05-07T00:55:51.393Z,3.50
2018-05-07T00:58:18.985Z,4.37
2018-05-07T01:00:46.604Z,4.00
2018-05-07T01:03:14.205Z,4.57
2018-05-07T01:05:41.824Z,4.37
2018-05-07T01:08:09.415Z,4.67
2018-05-07T01:10:37.019Z,4.60
2018-05-07T01:13:05.384Z,4.10
2018-05-07T01:15:32.995Z,4.53
2018-05-07T01:18:00.596Z,3.67
2018-05-07T01:20:28.238Z,4.37
2018-05-07T01:22:56.600Z,4.40
2018-05-07T01:25:24.181Z,4.23
2018-05-07T01:27:51.803Z,4.30
2018-05-07T01:30:19.400Z,4.60
2018-05-07T01:32:47.009Z,4.40
2018-05-07T01:35:15.361Z,4.50
2018-05-07T01:37:42.976Z,4.50
2018-05-07T01:40:10.565Z,4.37
2018-05-07T01:42:38.181Z,4.60
2018-05-07T01:45:05.795Z,5.03
2018-05-07T01:47:33.416Z,4.50
2018-05-07T01:50:01.009Z,4.20
2018-05-07T01:52:28.625Z,5.20
2018-05-07T01:54:56.222Z,4.40
2018-05-07T01:57:23.843Z,4.50
2018-05-07T01:59:51.538Z,4.50
2018-05-07T02:02:19.147Z,4.83
2018-05-07T02:04:47.509Z,4.63
2018-05-07T02:07:15.143Z,4.67
2018-05-07T02:09:42.731Z,4.03
2018-05-07T02:12:10.349Z,4.63
2018-05-07T02:14:38.867Z,4.47
2018-05-07T02:17:06.496Z,3.90
2018-05-07T02:19:34.088Z,4.63
2018-05-07T02:22:01.718Z,4.10
2018-05-07T02:24:29.302Z,4.30
2018-05-07T02:26:56.913Z,5.13
2018-05-07T02:29:24.516Z,4.37
2018-05-07T02:31:52.128Z,4.53
2018-05-07T02:34:19.712Z,5.50
2018-05-07T02:36:47.338Z,4.20
2018-05-07T02:39:14.928Z,4.90
2018-05-07T02:41:42.545Z,5.17
2018-05-07T02:44:10.807Z,4.60
2018-05-07T02:46:38.425Z,4.60
2018-05-07T02:49:06.012Z,4.10
2018-05-07T02:51:33.619Z,4.77
2018-05-07T02:54:01.983Z,3.93
2018-05-07T02:56:30.365Z,5.60
2018-05-07T02:58:58.738Z,5.83
2018-05-07T03:01:26.370Z,5.63
2018-05-07T03:03:53.966Z,8.33
2018-05-07T03:06:22.356Z,9.10
2018-05-07T03:08:50.707Z,10.87
2018-05-07T03:11:18.324Z,10.43
2018-05-07T03:13:45.932Z,11.23
2018-05-07T03:16:13.605Z,12.37
2018-05-07T03:18:41.976Z,12.30
2018-05-07T03:21:09.594Z,17.80
2018-05-07T03:23:37.961Z,19.03
2018-05-07T03:26:05.617Z,17.47
2018-05-07T03:28:33.213Z,17.60
2018-05-07T03:31:00.838Z,13.97
2018-05-07T03:33:28.426Z,13.83
2018-05-07T03:35:56.053Z,14.40
2018-05-07T03:38:23.663Z,14.60
2018-05-07T03:40:51.253Z,13.47
2018-05-07T03:43:19.627Z,12.23
2018-05-07T03:45:47.987Z,11.00
2018-05-07T03:48:15.611Z,10.90
2018-05-07T03:50:43.213Z,9.53
2018-05-07T03:53:10.839Z,10.07
2018-05-07T03:55:38.438Z,9.50
2018-05-07T03:58:06.057Z,11.60
2018-05-07T04:00:34.516Z,10.43
2018-05-07T04:03:02.151Z,11.07
2018-05-07T04:05:30.520Z,9.90
2018-05-07T04:07:58.140Z,10.50
2018-05-07T04:10:25.735Z,10.47
2018-05-07T04:12:53.363Z,10.30
2018-05-07T04:15:20.956Z,9.90
2018-05-07T04:18:00.505Z,9.67
2018-05-07T04:20:39.897Z,9.40
2018-05-07T04:23:19.277Z,9.30
2018-05-07T04:25:47.640Z,9.10
2018-05-07T04:28:15.276Z,7.47
2018-05-07T04:30:42.860Z,6.87
2018-05-07T04:33:10.486Z,6.40
2018-05-07T04:35:38.080Z,6.33
2018-05-07T04:38:05.680Z,6.03
2018-05-07T04:40:43.448Z,4.87
2018-05-07T04:43:11.073Z,5.60
2018-05-07T04:45:38.662Z,5.60
2018-05-07T04:48:06.306Z,5.23
2018-05-07T04:50:34.042Z,5.30
2018-05-07T04:53:01.655Z,5.60
2018-05-07T04:55:29.240Z,5.40
2018-05-07T04:57:57.627Z,5.07
2018-05-07T05:00:25.290Z,5.63
2018-05-07T05:02:52.920Z,5.23
2018-05-07T05:05:20.521Z,5.53
2018-05-07T05:07:48.120Z,5.73
2018-05-07T05:10:15.699Z,6.07
2018-05-07T05:12:43.311Z,5.03
2018-05-07T05:15:10.903Z,5.70
2018-05-07T05:17:38.515Z,5.80
2018-05-07T05:20:06.102Z,5.83
2018-05-07T05:22:33.720Z,5.67
2018-05-07T05:25:02.063Z,5.83
2018-05-07T05:27:29.684Z,6.67
2018-05-07T05:29:57.276Z,6.60
2018-05-07T05:32:25.657Z,6.20
2018-05-07T05:34:53.277Z,5.93
2018-05-07T05:37:20.942Z,6.60
2018-05-07T05:39:49.281Z,7.20
2018-05-07T05:42:16.891Z,6.10
2018-05-07T05:44:44.483Z,5.63
2018-05-07T05:47:12.116Z,6.20
2018-05-07T05:49:39.712Z,5.67
2018-05-07T05:52:07.329Z,6.30
2018-05-07T05:54:34.919Z,6.60
2018-05-07T05:57:02.529Z,6.13
2018-05-07T05:59:30.148Z,6.10
2018-05-07T06:01:57.744Z,9.10
2018-05-07T06:04:25.371Z,6.10
2018-05-07T06:06:52.965Z,6.23
2018-05-07T06:09:20.632Z,6.57
2018-05-07T06:11:48.246Z,6.60
2018-05-07T06:14:15.841Z,5.80
2018-05-07T06:16:44.258Z,5.83
2018-05-07T06:19:11.852Z,6.10
2018-05-07T06:21:39.483Z,5.50
2018-05-07T06:24:07.075Z,4.47
2018-05-07T06:26:34.710Z,3.90
2018-05-07T06:29:02.308Z,5.40
2018-05-07T06:31:29.924Z,4.00
2018-05-07T06:33:57.524Z,3.77
2018-05-07T06:36:25.136Z,3.80
2018-05-07T06:38:52.792Z,4.53
2018-05-07T06:41:20.402Z,3.50
2018-05-07T06:43:48.017Z,3.80
2018-05-07T06:46:15.666Z,3.97
2018-05-07T06:48:43.282Z,3.83
2018-05-07T06:51:10.878Z,3.70
2018-05-07T06:53:39.262Z,3.90
2018-05-07T06:56:06.860Z,3.83
2018-05-07T06:58:34.458Z,3.30
2018-05-07T07:01:02.862Z,3.73
2018-05-07T07:03:30.453Z,3.77
2018-05-07T07:05:58.040Z,4.00
2018-05-07T07:08:25.765Z,3.87
2018-05-07T07:10:53.285Z,3.70
2018-05-07T07:13:21.644Z,3.90
2018-05-07T07:15:49.279Z,4.07
2018-05-07T07:18:16.900Z,3.70
2018-05-07T07:20:44.495Z,4.03
2018-05-07T07:23:17.972Z,4.27
2018-05-07T07:25:45.572Z,3.87
2018-05-07T07:28:13.164Z,3.43
2018-05-07T07:30:41.428Z,3.50
2018-05-07T07:33:10.529Z,3.63
2018-05-07T07:35:38.888Z,3.50
2018-05-07T07:38:06.516Z,3.50
2018-05-07T07:40:34.104Z,3.60
2018-05-07T07:43:01.696Z,3.50
2018-05-07T07:45:30.080Z,3.87
2018-05-07T07:47:58.447Z,4.00
2018-05-07T07:50:26.961Z,4.03
2018-05-07T07:52:54.580Z,3.70
2018-05-07T07:55:22.936Z,3.60
2018-05-07T07:57:50.528Z,3.53
2018-05-07T08:00:18.916Z,3.60
2018-05-07T08:02:46.521Z,3.90
2018-05-07T08:05:14.108Z,3.37
2018-05-07T08:07:41.722Z,3.10
2018-05-07T08:10:09.310Z,3.87
2018-05-07T08:12:36.924Z,4.07
2018-05-07T08:15:05.284Z,3.63
2018-05-07T08:17:33.651Z,4.57
2018-05-07T08:20:04.985Z,3.43
2018-05-07T08:22:32.617Z,4.53
2018-05-07T08:25:00.249Z,3.97
2018-05-07T08:27:27.835Z,4.10
2018-05-07T08:29:55.429Z,3.67
2018-05-07T08:32:23.044Z,4.00
2018-05-07T08:34:50.631Z,3.63
2018-05-07T08:37:19.030Z,3.50
2018-05-07T08:39:46.618Z,3.77
2018-05-07T08:42:15.047Z,3.43
2018-05-07T08:44:42.620Z,3.57
2018-05-07T08:47:10.230Z,3.50
2018-05-07T08:49:37.858Z,3.53
2018-05-07T08:52:05.466Z,3.90
2018-05-07T08:54:33.069Z,4.07
2018-05-07T08:57:00.698Z,3.70
2018-05-07T08:59:28.300Z,3.60
2018-05-07T09:01:55.917Z,3.97
2018-05-07T09:04:23.513Z,3.80
2018-05-07T09:06:51.116Z,3.40
2018-05-07T09:09:18.730Z,3.40
2018-05-07T09:11:46.317Z,3.47
2018-05-07T09:14:14.692Z,3.70
2018-05-07T09:16:43.049Z,3.50
2018-05-07T09:19:10.643Z,3.40
2018-05-07T09:21:38.264Z,4.10
2018-05-07T09:24:05.860Z,3.37
2018-05-07T09:26:34.252Z,3.30
2018-05-07T09:29:01.839Z,3.17
2018-05-07T09:31:29.479Z,3.53
2018-05-07T09:33:57.849Z,3.37
2018-05-07T09:36:25.448Z,3.30
2018-05-07T09:38:53.072Z,3.03
2018-05-07T09:41:20.691Z,3.17
2018-05-07T09:43:48.275Z,3.00
2018-05-07T09:46:15.884Z,3.50
2018-05-07T09:48:43.487Z,3.40
2018-05-07T09:51:11.104Z,3.97
2018-05-07T09:53:38.698Z,3.40
2018-05-07T09:56:06.292Z,3.17
2018-05-07T09:58:33.907Z,3.63
2018-05-07T10:01:01.496Z,3.40
2018-05-07T10:03:29.923Z,3.20
2018-05-07T10:05:57.521Z,3.00
2018-05-07T10:08:25.115Z,3.93
2018-05-07T10:10:52.745Z,3.33
2018-05-07T10:13:20.341Z,3.53
2018-05-07T10:15:47.966Z,3.30
2018-05-07T10:18:15.569Z,3.77
2018-05-07T10:20:43.192Z,3.43
2018-05-07T10:23:11.580Z,3.20
2018-05-07T10:25:39.932Z,3.20
2018-05-07T10:28:07.556Z,2.90
2018-05-07T10:30:35.796Z,3.20
2018-05-07T10:33:04.163Z,2.50
2018-05-07T10:35:32.552Z,3.10
2018-05-07T10:38:00.921Z,3.03
2018-05-07T10:40:29.305Z,3.00
2018-05-07T10:42:57.701Z,2.70
2018-05-07T10:45:25.300Z,3.23
2018-05-07T10:47:52.913Z,2.90
2018-05-07T10:50:21.274Z,2.60
2018-05-07T10:52:49.668Z,3.07
2018-05-07T10:55:17.262Z,2.87
2018-05-07T10:57:44.852Z,3.00
2018-05-07T11:00:12.481Z,2.80
2018-05-07T11:02:40.251Z,2.90
2018-05-07T11:05:07.873Z,3.00
2018-05-07T11:07:37.700Z,2.77
2018-05-07T11:10:05.308Z,2.80
2018-05-07T11:12:32.911Z,2.87
2018-05-07T11:15:01.260Z,3.10
2018-05-07T11:17:29.607Z,2.93
2018-05-07T11:19:57.191Z,3.10
2018-05-07T11:22:26.366Z,2.97
2018-05-07T11:24:54.095Z,2.80
2018-05-07T11:27:21.687Z,2.60
2018-05-07T11:29:49.310Z,2.93
2018-05-07T11:32:17.656Z,3.07
2018-05-07T11:34:45.240Z,2.70
2018-05-07T11:37:13.626Z,2.50
2018-05-07T11:39:43.538Z,2.50
2018-05-07T11:42:11.136Z,2.60
2018-05-07T11:44:39.800Z,2.37
2018-05-07T11:47:07.380Z,2.33
2018-05-07T11:49:35.764Z,2.90
2018-05-07T11:52:03.348Z,2.53
2018-05-07T11:54:30.937Z,2.13
2018-05-07T11:56:59.337Z,2.90
2018-05-07T11:59:26.931Z,3.07
2018-05-07T12:01:54.547Z,2.30
2018-05-07T12:04:22.144Z,2.83
2018-05-07T12:06:49.725Z,2.30
2018-05-07T12:09:17.346Z,2.33
2018-05-07T12:11:44.945Z,2.20
2018-05-07T12:14:12.565Z,2.80
2018-05-07T12:16:40.172Z,2.37
2018-05-07T12:19:07.770Z,2.10
2018-05-07T12:21:57.361Z,2.67
2018-05-07T12:24:24.964Z,2.33
2018-05-07T12:26:52.588Z,2.40
2018-05-07T12:29:20.172Z,2.20
2018-05-07T12:31:47.903Z,2.23
2018-05-07T12:34:24.100Z,2.57
2018-05-07T12:36:51.694Z,2.57
2018-05-07T12:39:20.087Z,2.30
2018-05-07T12:41:48.471Z,2.70
2018-05-07T12:44:16.087Z,2.60
2018-05-07T12:46:43.768Z,2.20
2018-05-07T12:49:11.321Z,1.93
2018-05-07T12:51:38.945Z,2.90
2018-05-07T12:54:06.538Z,2.07
2018-05-07T12:56:34.124Z,2.60
2018-05-07T12:59:06.795Z,1.77
2018-05-07T13:01:35.204Z,2.00
2018-05-07T13:04:03.124Z,1.90
2018-05-07T13:06:30.723Z,2.30
2018-05-07T13:08:58.315Z,2.17
2018-05-07T13:11:25.932Z,2.10
2018-05-07T13:13:54.288Z,2.00
2018-05-07T13:16:21.923Z,1.83
2018-05-07T13:18:49.519Z,2.47
2018-05-07T13:21:17.876Z,2.00
2018-05-07T13:23:45.495Z,2.33
2018-05-07T13:26:13.088Z,6.20
2018-05-07T13:28:40.700Z,2.50
2018-05-07T13:31:08.292Z,2.03
2018-05-07T13:33:35.880Z,1.90
2018-05-07T13:36:03.499Z,1.67
2018-05-07T13:38:31.097Z,2.23
2018-05-07T13:40:58.720Z,2.10
2018-05-07T13:43:27.010Z,2.07
2018-05-07T13:45:54.596Z,2.07
2018-05-07T13:48:22.212Z,2.27
2018-05-07T13:50:49.804Z,2.40
2018-05-07T13:53:17.433Z,2.50
2018-05-07T13:55:45.033Z,2.00
2018-05-07T13:58:12.627Z,2.53
2018-05-07T14:00:41.000Z,2.10
2018-05-07T14:03:09.412Z,2.60
2018-05-07T14:05:37.029Z,2.50
2018-05-07T14:08:12.845Z,2.70
2018-05-07T14:10:40.456Z,2.07
2018-05-07T14:13:08.813Z,1.93
2018-05-07T14:15:36.420Z,2.20
2018-05-07T14:18:04.048Z,2.40
2018-05-07T14:20:32.412Z,2.53
2018-05-07T14:23:00.025Z,2.13
2018-05-07T14:25:27.625Z,2.40
2018-05-07T14:27:55.223Z,19.30
2018-05-07T14:30:22.833Z,2.50
2018-05-07T14:32:50.439Z,2.13
2018-05-07T14:35:18.820Z,2.07
2018-05-07T14:37:47.183Z,2.30
2018-05-07T14:40:15.542Z,2.27
2018-05-07T14:42:43.148Z,2.00
2018-05-07T14:45:10.744Z,2.30
2018-05-07T14:47:38.535Z,2.20
2018-05-07T14:50:06.131Z,1.90
2018-05-07T14:52:34.782Z,2.13
2018-05-07T14:55:02.406Z,2.30
2018-05-07T14:57:30.769Z,2.00
2018-05-07T14:59:58.383Z,2.40
2018-05-07T15:02:25.988Z,2.20
2018-05-07T15:04:53.580Z,2.33
2018-05-07T15:07:21.211Z,2.53
2018-05-07T15:09:48.818Z,2.17
2018-05-07T15:12:16.449Z,1.93
2018-05-07T15:14:44.036Z,2.20
2018-05-07T15:17:11.627Z,2.10
2018-05-07T15:19:40.025Z,2.47
2018-05-07T15:22:07.617Z,2.40
2018-05-07T15:24:45.939Z,2.23
2018-05-07T15:27:13.525Z,2.27
2018-05-07T15:29:41.880Z,2.20
2018-05-07T15:32:09.497Z,1.97
2018-05-07T15:34:37.083Z,2.30
2018-05-07T15:37:04.708Z,2.27
2018-05-07T15:39:32.296Z,2.37
2018-05-07T15:41:59.888Z,2.73
2018-05-07T15:44:27.515Z,2.17
2018-05-07T15:46:55.107Z,2.47
2018-05-07T15:49:22.751Z,2.77
2018-05-07T15:51:50.335Z,2.70
2018-05-07T15:54:18.864Z,2.77
2018-05-07T15:56:46.464Z,2.67
2018-05-07T15:59:14.078Z,2.80
2018-05-07T16:01:41.669Z,2.60
2018-05-07T16:04:09.288Z,2.40
2018-05-07T16:06:36.905Z,2.90
2018-05-07T16:09:05.225Z,3.03
2018-05-07T16:11:32.868Z,2.73
2018-05-07T16:14:01.236Z,2.60
2018-05-07T16:16:28.855Z,2.20
2018-05-07T16:18:56.452Z,3.00
2018-05-07T16:21:24.227Z,2.70
2018-05-07T16:23:51.724Z,2.50
2018-05-07T16:26:19.329Z,3.00
2018-05-07T16:28:46.964Z,3.00
2018-05-07T16:31:14.623Z,3.00
2018-05-07T16:33:42.959Z,2.53
2018-05-07T16:36:11.431Z,2.87
2018-05-07T16:38:39.803Z,3.30
2018-05-07T16:41:08.201Z,2.77
2018-05-07T16:43:36.560Z,3.00
2018-05-07T16:46:04.181Z,3.27
2018-05-07T16:48:36.252Z,2.80
2018-05-07T16:51:07.654Z,3.30
2018-05-07T16:53:36.825Z,2.90
2018-05-07T16:56:04.459Z,2.63
2018-05-07T16:58:32.052Z,2.77
2018-05-07T17:01:08.192Z,3.17
2018-05-07T17:03:35.776Z,3.37
2018-05-07T17:06:04.174Z,2.97
2018-05-07T17:08:31.782Z,3.30
2018-05-07T17:10:59.645Z,3.13
2018-05-07T17:13:28.281Z,3.63
2018-05-07T17:15:56.636Z,3.40
2018-05-07T17:18:24.247Z,3.07
2018-05-07T17:20:51.839Z,3.73
2018-05-07T17:23:19.420Z,2.90
2018-05-07T17:25:47.360Z,3.87
2018-05-07T17:28:15.005Z,3.10
2018-05-07T17:30:42.696Z,3.40
2018-05-07T17:33:10.923Z,2.90
2018-05-07T17:35:50.359Z,3.07
2018-05-07T17:38:18.004Z,3.37
2018-05-07T17:40:46.684Z,3.30
2018-05-07T17:43:15.175Z,3.13
2018-05-07T17:46:04.377Z,3.33
2018-05-07T17:48:45.423Z,3.07
2018-05-07T17:51:13.056Z,3.60
2018-05-07T17:53:40.661Z,3.27
2018-05-07T17:56:08.251Z,2.87
2018-05-07T17:58:35.840Z,3.47
2018-05-07T18:01:03.608Z,3.30
2018-05-07T18:03:35.920Z,3.23
2018-05-07T18:06:07.386Z,3.10
2018-05-07T18:08:34.984Z,3.20
2018-05-07T18:11:05.715Z,3.40
2018-05-07T18:13:34.110Z,3.33
2018-05-07T18:16:02.544Z,3.60
2018-05-07T18:18:30.152Z,2.60
2018-05-07T18:20:58.552Z,3.07
2018-05-07T18:23:26.146Z,2.70
2018-05-07T18:25:53.766Z,2.53
2018-05-07T18:28:21.360Z,3.00
2018-05-07T18:30:48.997Z,3.07
2018-05-07T18:33:17.524Z,2.90
2018-05-07T18:35:45.109Z,3.23
2018-05-07T18:38:13.485Z,3.30
2018-05-07T18:40:41.844Z,2.77
2018-05-07T18:43:09.479Z,2.90
2018-05-07T18:45:37.072Z,2.80
2018-05-07T18:48:04.700Z,2.70
2018-05-07T18:50:32.296Z,3.00
2018-05-07T18:52:59.902Z,2.80
2018-05-07T18:55:27.692Z,2.77
2018-05-07T18:57:55.292Z,3.00
2018-05-07T19:00:23.682Z,3.20
2018-05-07T19:02:55.736Z,2.90
2018-05-07T19:05:24.116Z,2.60
2018-05-07T19:07:52.469Z,3.23
2018-05-07T19:10:20.069Z,3.10
2018-05-07T19:12:47.696Z,2.97
2018-05-07T19:15:15.285Z,3.03
2018-05-07T19:17:43.673Z,2.70
2018-05-07T19:20:11.275Z,2.90
2018-05-07T19:22:38.870Z,3.00
2018-05-07T19:25:07.252Z,3.03
2018-05-07T19:27:35.617Z,3.13
2018-05-07T19:30:03.247Z,4.00
2018-05-07T19:32:31.606Z,3.37
2018-05-07T19:34:59.223Z,3.37
2018-05-07T19:37:27.603Z,3.30
2018-05-07T19:39:56.050Z,3.30
2018-05-07T19:42:24.377Z,3.00
2018-05-07T19:44:51.984Z,3.43
2018-05-07T19:47:19.579Z,3.13
2018-05-07T19:49:47.973Z,3.10
2018-05-07T19:52:19.561Z,3.23
2018-05-07T19:54:47.235Z,4.43
2018-05-07T19:57:14.820Z,3.80
2018-05-07T19:59:42.421Z,3.93
2018-05-07T20:02:10.811Z,4.23
2018-05-07T20:04:38.878Z,4.07
2018-05-07T20:07:06.512Z,3.83
2018-05-07T20:09:34.889Z,3.30
2018-05-07T20:12:03.247Z,3.60
2018-05-07T20:14:30.876Z,3.10
2018-05-07T20:16:58.463Z,3.70
2018-05-07T20:19:26.075Z,3.40
2018-05-07T20:21:53.683Z,3.30
2018-05-07T20:24:21.287Z,3.17
2018-05-07T20:26:48.880Z,3.67
2018-05-07T20:29:16.530Z,3.70
2018-05-07T20:31:44.121Z,3.67
2018-05-07T20:34:11.745Z,4.03
2018-05-07T20:36:39.333Z,4.40
2018-05-07T20:39:06.922Z,4.07
2018-05-07T20:41:35.316Z,3.77
2018-05-07T20:44:02.944Z,3.90
2018-05-07T20:46:30.588Z,3.80
2018-05-07T20:48:58.190Z,4.03
2018-05-07T20:51:26.555Z,3.90
2018-05-07T20:53:54.172Z,3.67
2018-05-07T20:56:21.766Z,4.10
2018-05-07T20:58:49.392Z,3.83
2018-05-07T21:01:17.043Z,4.57
2018-05-07T21:03:45.365Z,3.70
2018-05-07T21:06:12.991Z,3.87
2018-05-07T21:08:40.591Z,4.20
2018-05-07T21:11:08.216Z,3.90
2018-05-07T21:13:35.810Z,4.07
2018-05-07T21:16:03.416Z,4.07
2018-05-07T21:18:31.031Z,4.50
2018-05-07T21:20:58.624Z,4.60
2018-05-07T21:23:27.016Z,4.30
2018-05-07T21:25:54.609Z,4.00
2018-05-07T21:28:22.201Z,3.97
2018-05-07T21:30:49.828Z,4.17
2018-05-07T21:33:17.448Z,4.27
2018-05-07T21:35:45.154Z,4.27
2018-05-07T21:38:13.475Z,5.17
2018-05-07T21:40:41.841Z,4.30
2018-05-07T21:43:09.468Z,4.70
2018-05-07T21:45:37.102Z,4.17
2018-05-07T21:48:04.729Z,5.13
2018-05-07T21:50:33.100Z,4.70
2018-05-07T21:53:00.688Z,4.70
2018-05-07T21:55:28.305Z,4.47
2018-05-07T21:57:55.909Z,4.17
2018-05-07T22:00:23.544Z,4.50
2018-05-07T22:02:51.145Z,4.40
2018-05-07T22:05:18.744Z,4.60
2018-05-07T22:07:46.364Z,5.20
2018-05-07T22:10:13.953Z,5.40
2018-05-07T22:12:41.591Z,4.50
2018-05-07T22:15:09.192Z,4.90
2018-05-07T22:17:36.816Z,4.60
2018-05-07T22:20:04.436Z,5.13
2018-05-07T22:22:32.026Z,4.47
2018-05-07T22:24:59.643Z,5.17
2018-05-07T22:27:27.238Z,5.07
2018-05-07T22:29:54.840Z,4.60
2018-05-07T22:32:22.457Z,5.20
2018-05-07T22:34:50.057Z,4.57
2018-05-07T22:37:17.682Z,5.07
2018-05-07T22:39:45.291Z,5.00
2018-05-07T22:42:12.895Z,4.97
2018-05-07T22:44:41.299Z,5.33
2018-05-07T22:47:08.897Z,5.60
2018-05-07T22:49:36.544Z,5.30
2018-05-07T22:52:04.164Z,5.63
2018-05-07T22:54:31.781Z,5.50
2018-05-07T22:56:59.401Z,5.97
2018-05-07T22:59:26.996Z,5.50
2018-05-07T23:01:54.616Z,5.60
2018-05-07T23:04:22.216Z,6.37
2018-05-07T23:06:49.808Z,5.60
2018-05-07T23:09:18.208Z,6.00
2018-05-07T23:11:45.801Z,5.47
2018-05-07T23:14:13.431Z,6.10
2018-05-07T23:16:41.023Z,5.73
2018-05-07T23:19:08.616Z,5.43
2018-05-07T23:21:36.224Z,5.57
2018-05-07T23:24:03.818Z,5.13
2018-05-07T23:26:31.440Z,5.33
2018-05-07T23:28:59.044Z,5.37
2018-05-07T23:31:26.641Z,5.27
2018-05-07T23:33:54.281Z,5.37
2018-05-07T23:36:22.648Z,5.27
2018-05-07T23:38:50.259Z,5.63
2018-05-07T23:41:17.868Z,5.93
2018-05-07T23:43:45.461Z,5.23
2018-05-07T23:46:13.841Z,5.57
2018-05-07T23:48:41.435Z,5.90
2018-05-07T23:51:09.050Z,6.20
2018-05-07T23:53:37.408Z,5.03
2018-05-07T23:56:05.005Z,5.03
2018-05-07T23:58:32.617Z,6.00
